Pascal — V2LP — position and weather

sailwx.info

Track history (hours):
 
Tides and Currents Weather Stations Pressure Air Temp Water Temp Dewpoint Dewpoint Depression Visibility Wind Speed Wind Dir Waves Ship Positions

Pascal

Last reported at 2017-Sep-21 08:45 UTC. Time now 2017-Sep-21 23:22 UTC.
Position N 49°46' W 003°17'.

Length 90 m; draft 5.7 m.

Type: Cargo ship. MMSI: 304291000.

Date/timePositionNaut miles runAvg speedWind from/ knotsBaromVisibWave heightAir tempDewpointWater temp
2017-Sep-21 08:45N 49°46' W 003°17'2 9.9
2017-Sep-21 08:30N 49°46' W 003°20'4 8.5
2017-Sep-21 08:00N 49°47' W 003°27'4 8.4
2017-Sep-21 07:30N 49°49' W 003°32'510.0
2017-Sep-21 07:00N 49°49' W 003°40'510.2
2017-Sep-21 06:30N 49°50' W 003°48'510.4
2017-Sep-21 06:00N 49°50' W 003°56'510.6
2017-Sep-21 05:31N 49°50' W 004°04'24 9.7
2017-Sep-21 03:05N 49°52' W 004°40'216 5.7
2017-Sep-19 13:26N 53°27' W 004°05'410.5
2017-Sep-19 13:00N 53°25' W 003°58'510.4
2017-Sep-19 12:30N 53°23' W 003°51'510.2
2017-Sep-19 12:00N 53°21' W 003°43'3 6.5
2017-Sep-19 11:29N 53°18' W 003°40'0 0.0
2017-Sep-19 10:59N 53°18' W 003°40'0 0.0
2017-Sep-19 09:56N 53°18' W 003°40'0 0.0
2017-Sep-19 09:11N 53°18' W 003°40'0 0.0
2017-Sep-19 08:59N 53°18' W 003°40'0 0.0
2017-Sep-19 08:29N 53°18' W 003°40'0 0.0
2017-Sep-19 07:47N 53°18' W 003°40'0 0.0
2017-Sep-19 07:14N 53°18' W 003°40'0 0.0
2017-Sep-19 06:59N 53°18' W 003°40'0 0.5
2017-Sep-19 06:30N 53°18' W 003°40'2 3.8
2017-Sep-19 06:00N 53°20' W 003°41'1 1.1
2017-Sep-19 05:30N 53°20' W 003°41'3 6.6
2017-Sep-19 05:00N 53°22' W 003°46'3 5.9
2017-Sep-19 04:30N 53°24' W 003°50'4 7.1
2017-Sep-19 04:00N 53°27' W 003°47'3 7.0
2017-Sep-19 03:30N 53°30' W 003°44'3 6.2
2017-Sep-19 03:00N 53°33' W 003°42'4 7.1
2017-Sep-19 02:30N 53°33' W 003°36'4 7.4
2017-Sep-19 02:00N 53°33' W 003°30'3 7.0
2017-Sep-19 01:30N 53°33' W 003°24'4 7.1
2017-Sep-19 01:00N 53°32' W 003°18'4 8.6
2017-Sep-19 00:30N 53°32' W 003°11'510.3
2017-Sep-19 00:00N 53°29' W 003°04'2 4.7
2017-Sep-18 23:30N 53°27' W 003°01'0 0.2
2017-Sep-18 23:00N 53°27' W 003°01'1 1.2
2017-Sep-18 22:30N 53°28' W 003°02'0 0.1
2017-Sep-18 22:00N 53°28' W 003°02'0 0.0
2017-Sep-18 21:30N 53°28' W 003°02'0 0.0
2017-Sep-18 21:00N 53°28' W 003°02'0 0.0
2017-Sep-18 20:30N 53°28' W 003°02'0 0.0
2017-Sep-18 20:00N 53°28' W 003°02'0 0.0
2017-Sep-18 19:30N 53°28' W 003°02'0 0.0
2017-Sep-18 19:00N 53°28' W 003°02'0 0.0
2017-Sep-18 18:30N 53°28' W 003°02'0 0.0
2017-Sep-18 18:00N 53°28' W 003°02'0 0.0
2017-Sep-18 17:30N 53°28' W 003°02'0 0.0
2017-Sep-18 17:00N 53°28' W 003°02'0 0.0
2017-Sep-18 16:30N 53°28' W 003°02'0 0.0
2017-Sep-18 16:00N 53°28' W 003°02'0 0.0
2017-Sep-18 15:30N 53°28' W 003°02'0 0.0
2017-Sep-18 15:00N 53°28' W 003°02'0 0.0
2017-Sep-18 14:30N 53°28' W 003°02'0 0.0
2017-Sep-18 14:00N 53°28' W 003°02'0 0.0
2017-Sep-18 13:30N 53°28' W 003°02'0 0.0
2017-Sep-18 13:00N 53°28' W 003°02'0 0.0
2017-Sep-18 12:30N 53°28' W 003°02'0 0.0
2017-Sep-18 12:00N 53°28' W 003°02'0 0.0
2017-Sep-18 11:24N 53°28' W 003°02'0 0.0
2017-Sep-18 11:00N 53°28' W 003°02'0 0.0
2017-Sep-18 10:30N 53°28' W 003°02'0 0.0
2017-Sep-18 10:00N 53°28' W 003°02'0 0.0
2017-Sep-18 09:30N 53°28' W 003°02'0 0.0
2017-Sep-18 09:00N 53°28' W 003°02'0 0.0
2017-Sep-18 08:18N 53°28' W 003°02'0 0.0
2017-Sep-18 08:00N 53°28' W 003°02'0 0.0
2017-Sep-18 07:27N 53°28' W 003°02'0 0.0
2017-Sep-18 07:00N 53°28' W 003°02'0 0.0
2017-Sep-18 06:30N 53°28' W 003°02'0 0.0
2017-Sep-18 06:00N 53°28' W 003°02'0 0.0
2017-Sep-18 05:30N 53°28' W 003°02'0 0.0
2017-Sep-18 05:00N 53°28' W 003°02'0 0.0
2017-Sep-18 04:30N 53°28' W 003°02'0 0.0
2017-Sep-18 04:00N 53°28' W 003°02'0 0.0
2017-Sep-18 03:30N 53°28' W 003°02'0 0.0
2017-Sep-18 03:00N 53°28' W 003°02'0 0.0
2017-Sep-18 02:30N 53°28' W 003°02'0 0.0
2017-Sep-18 02:00N 53°28' W 003°02'1 1.4
2017-Sep-18 01:31N 53°27' W 003°01'0 0.3
2017-Sep-18 01:00N 53°27' W 003°01'0 0.2
2017-Sep-18 00:31N 53°27' W 003°01'2 4.9
2017-Sep-18 00:00N 53°28' W 003°04'4 7.7
2017-Sep-17 23:31N 53°32' W 003°08'4 8.3
2017-Sep-17 23:00N 53°31' W 003°15'4 8.3
2017-Sep-17 22:30N 53°31' W 003°22'4 8.4
2017-Sep-17 22:00N 53°31' W 003°29'5 9.3
2017-Sep-17 21:30N 53°31' W 003°37'4 8.9
2017-Sep-17 21:00N 53°32' W 003°44'6 8.5
2017-Sep-17 20:16N 53°36' W 003°53'1 5.3
2017-Sep-17 20:00N 53°35' W 003°51'3 5.8
2017-Sep-17 19:30N 53°33' W 003°47'62 8.0
2017-Sep-17 11:40N 54°16' W 005°05'1 8.8
2017-Sep-17 11:31N 54°17' W 005°05'4 8.9
2017-Sep-17 11:01N 54°21' W 005°07'5 9.0
2017-Sep-17 10:31N 54°26' W 005°09'5 9.1
2017-Sep-17 10:01N 54°30' W 005°11'4 8.7
2017-Sep-17 09:31N 54°34' W 005°13'4 8.8
2017-Sep-17 09:01N 54°39' W 005°15'4 8.8
2017-Sep-17 08:30N 54°43' W 005°18'5 9.4
2017-Sep-17 08:00N 54°46' W 005°23'510.6
2017-Sep-17 07:31N 54°51' W 005°29'611.1
2017-Sep-17 07:00N 54°55' W 005°35'3111.8
2017-Sep-17 04:20N 55°20' W 006°07'310.6
2017-Sep-17 04:01N 55°21' W 006°13'5 9.4
2017-Sep-17 03:30N 55°24' W 006°19'5 9.6
2017-Sep-17 03:01N 55°28' W 006°24'5 9.7
2017-Sep-17 02:29N 55°32' W 006°30'4 9.1
2017-Sep-17 02:01N 55°35' W 006°34'4 8.3
2017-Sep-17 01:31N 55°39' W 006°39'4 7.2
2017-Sep-17 01:01N 55°42' W 006°39'4 7.8
2017-Sep-17 00:31N 55°46' W 006°37'44 8.9
2017-Sep-16 19:38N 56°19' W 005°46'110.6
2017-Sep-16 19:30N 56°19' W 005°44'510.3
2017-Sep-16 19:00N 56°24' W 005°38'510.9
2017-Sep-16 18:30N 56°29' W 005°38'510.4
2017-Sep-16 18:01N 56°33' W 005°32'1 1.7
2017-Sep-16 17:25N 56°34' W 005°32'0 0.0
2017-Sep-16 16:58N 56°34' W 005°32'0 0.0
2017-Sep-16 16:28N 56°34' W 005°32'0 0.0
2017-Sep-16 15:58N 56°34' W 005°32'0 0.0
2017-Sep-16 15:28N 56°34' W 005°32'0 0.0
2017-Sep-16 14:46N 56°34' W 005°32'0 0.0
2017-Sep-16 14:25N 56°34' W 005°32'0 0.0
2017-Sep-16 13:58N 56°34' W 005°32'0 0.0
2017-Sep-16 13:28N 56°34' W 005°32'0 0.0
2017-Sep-16 12:55N 56°34' W 005°32'0 0.0
2017-Sep-16 12:28N 56°34' W 005°32'0 0.0
2017-Sep-16 11:58N 56°34' W 005°32'0 0.0
2017-Sep-16 11:28N 56°34' W 005°32'0 0.0
2017-Sep-16 10:58N 56°34' W 005°32'0 0.0
2017-Sep-16 10:28N 56°34' W 005°32'0 0.0
2017-Sep-16 09:58N 56°34' W 005°32'0 0.0
2017-Sep-16 09:25N 56°34' W 005°32'0 0.0
2017-Sep-16 08:58N 56°34' W 005°32'0 0.0
2017-Sep-16 08:28N 56°34' W 005°32'0 0.0
2017-Sep-16 08:00N 56°34' W 005°32'1 1.5
2017-Sep-16 07:30N 56°33' W 005°32'2 4.6
2017-Sep-16 07:00N 56°31' W 005°34'4 7.9
2017-Sep-16 06:30N 56°28' W 005°38'4 7.8
2017-Sep-16 06:00N 56°24' W 005°38'5 8.4
2017-Sep-16 05:24N 56°20' W 005°43'40 9.0
2017-Sep-16 00:57N 55°52' W 006°34'4 9.0
2017-Sep-16 00:31N 55°48' W 006°36'4 8.6
2017-Sep-16 00:01N 55°44' W 006°38'4 7.7
2017-Sep-15 23:31N 55°40' W 006°40'4 7.6
2017-Sep-15 23:01N 55°37' W 006°35'4 7.9
2017-Sep-15 22:30N 55°34' W 006°30'4 8.8
2017-Sep-15 22:00N 55°31' W 006°25'4 8.8
2017-Sep-15 21:31N 55°28' W 006°19'4 8.5
2017-Sep-15 21:01N 55°25' W 006°13'4 8.8
2017-Sep-15 20:31N 55°24' W 006°06'4 8.2
2017-Sep-15 20:01N 55°22' W 006°00'4 8.8
2017-Sep-15 19:30N 55°18' W 005°56'4 8.7
2017-Sep-15 19:00N 55°15' W 005°52'4 8.0
2017-Sep-15 18:30N 55°11' W 005°48'18 7.9
2017-Sep-15 16:13N 54°56' W 005°30'2 7.5
2017-Sep-15 16:01N 54°55' W 005°28'3 6.7
2017-Sep-15 15:30N 54°52' W 005°25'4 7.7
2017-Sep-15 15:01N 54°49' W 005°21'4 7.8
2017-Sep-15 14:31N 54°46' W 005°17'4 8.1
2017-Sep-15 14:00N 54°43' W 005°13'4 8.2
2017-Sep-15 13:31N 54°39' W 005°09'4 7.5
2017-Sep-15 13:01N 54°38' W 005°03'4 8.1
2017-Sep-15 12:30N 54°36' W 004°57'4 8.1
2017-Sep-15 12:01N 54°35' W 004°50'  
2017-Sep-12 21:41N 52°29' W 005°45'2 9.2
2017-Sep-12 21:27N 52°27' W 005°47'4 9.0
2017-Sep-12 20:58N 52°23' W 005°50'5 8.6
2017-Sep-12 20:25N 52°19' W 005°52'4 8.6
2017-Sep-12 20:00N 52°15' W 005°55'4 8.2
2017-Sep-12 19:30N 52°12' W 005°57'4 7.6
2017-Sep-12 19:00N 52°08' W 005°59'4 7.5
2017-Sep-12 18:30N 52°05' W 006°02'4 7.7
2017-Sep-12 18:00N 52°01' W 006°05'4 7.7
2017-Sep-12 17:28N 51°58' W 006°08'  
Track history (hours):
 
Tides and Currents Weather Stations Pressure Air Temp Water Temp Dewpoint Dewpoint Depression Visibility Wind Speed Wind Dir Waves Ship Positions

Pascal

Last reported at 2017-Sep-21 08:45 UTC. Time now 2017-Sep-21 23:22 UTC.
Position N 49°46' W 003°17'.

Length 90 m; draft 5.7 m.

Type: Cargo ship. MMSI: 304291000.

Date/timePositionNaut miles runAvg speedWind from/ knotsBaromVisibWave heightAir tempDewpointWater temp
2017-Sep-21 08:45N 49°46' W 003°17'2 9.9
2017-Sep-21 08:30N 49°46' W 003°20'4 8.5
2017-Sep-21 08:00N 49°47' W 003°27'4 8.4
2017-Sep-21 07:30N 49°49' W 003°32'510.0
2017-Sep-21 07:00N 49°49' W 003°40'510.2
2017-Sep-21 06:30N 49°50' W 003°48'510.4
2017-Sep-21 06:00N 49°50' W 003°56'510.6
2017-Sep-21 05:31N 49°50' W 004°04'24 9.7
2017-Sep-21 03:05N 49°52' W 004°40'216 5.7
2017-Sep-19 13:26N 53°27' W 004°05'410.5
2017-Sep-19 13:00N 53°25' W 003°58'510.4
2017-Sep-19 12:30N 53°23' W 003°51'510.2
2017-Sep-19 12:00N 53°21' W 003°43'3 6.5
2017-Sep-19 11:29N 53°18' W 003°40'0 0.0
2017-Sep-19 10:59N 53°18' W 003°40'0 0.0
2017-Sep-19 09:56N 53°18' W 003°40'0 0.0
2017-Sep-19 09:11N 53°18' W 003°40'0 0.0
2017-Sep-19 08:59N 53°18' W 003°40'0 0.0
2017-Sep-19 08:29N 53°18' W 003°40'0 0.0
2017-Sep-19 07:47N 53°18' W 003°40'0 0.0
2017-Sep-19 07:14N 53°18' W 003°40'0 0.0
2017-Sep-19 06:59N 53°18' W 003°40'0 0.5
2017-Sep-19 06:30N 53°18' W 003°40'2 3.8
2017-Sep-19 06:00N 53°20' W 003°41'1 1.1
2017-Sep-19 05:30N 53°20' W 003°41'3 6.6
2017-Sep-19 05:00N 53°22' W 003°46'3 5.9
2017-Sep-19 04:30N 53°24' W 003°50'4 7.1
2017-Sep-19 04:00N 53°27' W 003°47'3 7.0
2017-Sep-19 03:30N 53°30' W 003°44'3 6.2
2017-Sep-19 03:00N 53°33' W 003°42'4 7.1
2017-Sep-19 02:30N 53°33' W 003°36'4 7.4
2017-Sep-19 02:00N 53°33' W 003°30'3 7.0
2017-Sep-19 01:30N 53°33' W 003°24'4 7.1
2017-Sep-19 01:00N 53°32' W 003°18'4 8.6
2017-Sep-19 00:30N 53°32' W 003°11'510.3
2017-Sep-19 00:00N 53°29' W 003°04'2 4.7
2017-Sep-18 23:30N 53°27' W 003°01'0 0.2
2017-Sep-18 23:00N 53°27' W 003°01'1 1.2
2017-Sep-18 22:30N 53°28' W 003°02'0 0.1
2017-Sep-18 22:00N 53°28' W 003°02'0 0.0
2017-Sep-18 21:30N 53°28' W 003°02'0 0.0
2017-Sep-18 21:00N 53°28' W 003°02'0 0.0
2017-Sep-18 20:30N 53°28' W 003°02'0 0.0
2017-Sep-18 20:00N 53°28' W 003°02'0 0.0
2017-Sep-18 19:30N 53°28' W 003°02'0 0.0
2017-Sep-18 19:00N 53°28' W 003°02'0 0.0
2017-Sep-18 18:30N 53°28' W 003°02'0 0.0
2017-Sep-18 18:00N 53°28' W 003°02'0 0.0
2017-Sep-18 17:30N 53°28' W 003°02'0 0.0
2017-Sep-18 17:00N 53°28' W 003°02'0 0.0
2017-Sep-18 16:30N 53°28' W 003°02'0 0.0
2017-Sep-18 16:00N 53°28' W 003°02'0 0.0
2017-Sep-18 15:30N 53°28' W 003°02'0 0.0
2017-Sep-18 15:00N 53°28' W 003°02'0 0.0
2017-Sep-18 14:30N 53°28' W 003°02'0 0.0
2017-Sep-18 14:00N 53°28' W 003°02'0 0.0
2017-Sep-18 13:30N 53°28' W 003°02'0 0.0
2017-Sep-18 13:00N 53°28' W 003°02'0 0.0
2017-Sep-18 12:30N 53°28' W 003°02'0 0.0
2017-Sep-18 12:00N 53°28' W 003°02'0 0.0
2017-Sep-18 11:24N 53°28' W 003°02'0 0.0
2017-Sep-18 11:00N 53°28' W 003°02'0 0.0
2017-Sep-18 10:30N 53°28' W 003°02'0 0.0
2017-Sep-18 10:00N 53°28' W 003°02'0 0.0
2017-Sep-18 09:30N 53°28' W 003°02'0 0.0
2017-Sep-18 09:00N 53°28' W 003°02'0 0.0
2017-Sep-18 08:18N 53°28' W 003°02'0 0.0
2017-Sep-18 08:00N 53°28' W 003°02'0 0.0
2017-Sep-18 07:27N 53°28' W 003°02'0 0.0
2017-Sep-18 07:00N 53°28' W 003°02'0 0.0
2017-Sep-18 06:30N 53°28' W 003°02'0 0.0
2017-Sep-18 06:00N 53°28' W 003°02'0 0.0
2017-Sep-18 05:30N 53°28' W 003°02'0 0.0
2017-Sep-18 05:00N 53°28' W 003°02'0 0.0
2017-Sep-18 04:30N 53°28' W 003°02'0 0.0
2017-Sep-18 04:00N 53°28' W 003°02'0 0.0
2017-Sep-18 03:30N 53°28' W 003°02'0 0.0
2017-Sep-18 03:00N 53°28' W 003°02'0 0.0
2017-Sep-18 02:30N 53°28' W 003°02'0 0.0
2017-Sep-18 02:00N 53°28' W 003°02'1 1.4
2017-Sep-18 01:31N 53°27' W 003°01'0 0.3
2017-Sep-18 01:00N 53°27' W 003°01'0 0.2
2017-Sep-18 00:31N 53°27' W 003°01'2 4.9
2017-Sep-18 00:00N 53°28' W 003°04'4 7.7
2017-Sep-17 23:31N 53°32' W 003°08'4 8.3
2017-Sep-17 23:00N 53°31' W 003°15'4 8.3
2017-Sep-17 22:30N 53°31' W 003°22'4 8.4
2017-Sep-17 22:00N 53°31' W 003°29'5 9.3
2017-Sep-17 21:30N 53°31' W 003°37'4 8.9
2017-Sep-17 21:00N 53°32' W 003°44'6 8.5
2017-Sep-17 20:16N 53°36' W 003°53'1 5.3
2017-Sep-17 20:00N 53°35' W 003°51'3 5.8
2017-Sep-17 19:30N 53°33' W 003°47'62 8.0
2017-Sep-17 11:40N 54°16' W 005°05'1 8.8
2017-Sep-17 11:31N 54°17' W 005°05'4 8.9
2017-Sep-17 11:01N 54°21' W 005°07'5 9.0
2017-Sep-17 10:31N 54°26' W 005°09'5 9.1
2017-Sep-17 10:01N 54°30' W 005°11'4 8.7
2017-Sep-17 09:31N 54°34' W 005°13'4 8.8
2017-Sep-17 09:01N 54°39' W 005°15'4 8.8
2017-Sep-17 08:30N 54°43' W 005°18'5 9.4
2017-Sep-17 08:00N 54°46' W 005°23'510.6
2017-Sep-17 07:31N 54°51' W 005°29'611.1
2017-Sep-17 07:00N 54°55' W 005°35'3111.8
2017-Sep-17 04:20N 55°20' W 006°07'310.6
2017-Sep-17 04:01N 55°21' W 006°13'5 9.4
2017-Sep-17 03:30N 55°24' W 006°19'5 9.6
2017-Sep-17 03:01N 55°28' W 006°24'5 9.7
2017-Sep-17 02:29N 55°32' W 006°30'4 9.1
2017-Sep-17 02:01N 55°35' W 006°34'4 8.3
2017-Sep-17 01:31N 55°39' W 006°39'4 7.2
2017-Sep-17 01:01N 55°42' W 006°39'4 7.8
2017-Sep-17 00:31N 55°46' W 006°37'44 8.9
2017-Sep-16 19:38N 56°19' W 005°46'110.6
2017-Sep-16 19:30N 56°19' W 005°44'510.3
2017-Sep-16 19:00N 56°24' W 005°38'510.9
2017-Sep-16 18:30N 56°29' W 005°38'510.4
2017-Sep-16 18:01N 56°33' W 005°32'1 1.7
2017-Sep-16 17:25N 56°34' W 005°32'0 0.0
2017-Sep-16 16:58N 56°34' W 005°32'0 0.0
2017-Sep-16 16:28N 56°34' W 005°32'0 0.0
2017-Sep-16 15:58N 56°34' W 005°32'0 0.0
2017-Sep-16 15:28N 56°34' W 005°32'0 0.0
2017-Sep-16 14:46N 56°34' W 005°32'0 0.0
2017-Sep-16 14:25N 56°34' W 005°32'0 0.0
2017-Sep-16 13:58N 56°34' W 005°32'0 0.0
2017-Sep-16 13:28N 56°34' W 005°32'0 0.0
2017-Sep-16 12:55N 56°34' W 005°32'0 0.0
2017-Sep-16 12:28N 56°34' W 005°32'0 0.0
2017-Sep-16 11:58N 56°34' W 005°32'0 0.0
2017-Sep-16 11:28N 56°34' W 005°32'0 0.0
2017-Sep-16 10:58N 56°34' W 005°32'0 0.0
2017-Sep-16 10:28N 56°34' W 005°32'0 0.0
2017-Sep-16 09:58N 56°34' W 005°32'0 0.0
2017-Sep-16 09:25N 56°34' W 005°32'0 0.0
2017-Sep-16 08:58N 56°34' W 005°32'0 0.0
2017-Sep-16 08:28N 56°34' W 005°32'0 0.0
2017-Sep-16 08:00N 56°34' W 005°32'1 1.5
2017-Sep-16 07:30N 56°33' W 005°32'2 4.6
2017-Sep-16 07:00N 56°31' W 005°34'4 7.9
2017-Sep-16 06:30N 56°28' W 005°38'4 7.8
2017-Sep-16 06:00N 56°24' W 005°38'5 8.4
2017-Sep-16 05:24N 56°20' W 005°43'40 9.0
2017-Sep-16 00:57N 55°52' W 006°34'4 9.0
2017-Sep-16 00:31N 55°48' W 006°36'4 8.6
2017-Sep-16 00:01N 55°44' W 006°38'4 7.7
2017-Sep-15 23:31N 55°40' W 006°40'4 7.6
2017-Sep-15 23:01N 55°37' W 006°35'4 7.9
2017-Sep-15 22:30N 55°34' W 006°30'4 8.8
2017-Sep-15 22:00N 55°31' W 006°25'4 8.8
2017-Sep-15 21:31N 55°28' W 006°19'4 8.5
2017-Sep-15 21:01N 55°25' W 006°13'4 8.8
2017-Sep-15 20:31N 55°24' W 006°06'4 8.2
2017-Sep-15 20:01N 55°22' W 006°00'4 8.8
2017-Sep-15 19:30N 55°18' W 005°56'4 8.7
2017-Sep-15 19:00N 55°15' W 005°52'4 8.0
2017-Sep-15 18:30N 55°11' W 005°48'18 7.9
2017-Sep-15 16:13N 54°56' W 005°30'2 7.5
2017-Sep-15 16:01N 54°55' W 005°28'3 6.7
2017-Sep-15 15:30N 54°52' W 005°25'4 7.7
2017-Sep-15 15:01N 54°49' W 005°21'4 7.8
2017-Sep-15 14:31N 54°46' W 005°17'4 8.1
2017-Sep-15 14:00N 54°43' W 005°13'4 8.2
2017-Sep-15 13:31N 54°39' W 005°09'4 7.5
2017-Sep-15 13:01N 54°38' W 005°03'4 8.1
2017-Sep-15 12:30N 54°36' W 004°57'4 8.1
2017-Sep-15 12:01N 54°35' W 004°50'  
2017-Sep-12 21:41N 52°29' W 005°45'2 9.2
2017-Sep-12 21:27N 52°27' W 005°47'4 9.0
2017-Sep-12 20:58N 52°23' W 005°50'5 8.6
2017-Sep-12 20:25N 52°19' W 005°52'4 8.6
2017-Sep-12 20:00N 52°15' W 005°55'4 8.2
2017-Sep-12 19:30N 52°12' W 005°57'4 7.6
2017-Sep-12 19:00N 52°08' W 005°59'4 7.5
2017-Sep-12 18:30N 52°05' W 006°02'4 7.7
2017-Sep-12 18:00N 52°01' W 006°05'4 7.7
2017-Sep-12 17:28N 51°58' W 006°08'  

Dump ship's entire track history